Time;durP1;ratioP1;P1;durP2;ratioP2;P2;SDS_P1;SDS_P2;PMS_P1;PMS_P2;Temp;Humidity;BMP_temperature;BMP_pressure;BME280_temperature;BME280_humidity;BME280_pressure;Samples;Min_cycle;Max_cycle;Signal;HPM_P1;HPM_P2
2022/06/14 00:02:52;;;;;;;13.00;3.10;;;10.60;86.10;;;;;;5035756;28;20206;-85
2022/06/14 00:05:18;;;;;;;11.90;3.17;;;10.60;85.90;;;;;;5035633;28;20263;-85
2022/06/14 00:07:43;;;;;;;13.43;2.70;;;10.60;85.90;;;;;;5034554;28;20295;-88
2022/06/14 00:10:09;;;;;;;11.67;3.20;;;10.60;85.80;;;;;;5034555;28;20334;-87
2022/06/14 00:12:35;;;;;;;10.60;3.17;;;10.60;85.90;;;;;;5034432;28;20212;-88
2022/06/14 00:15:00;;;;;;;17.93;3.40;;;10.60;86.10;;;;;;5034440;28;20184;-87
2022/06/14 00:17:26;;;;;;;13.03;2.87;;;10.70;86.20;;;;;;5034620;28;20211;-88
2022/06/14 00:19:51;;;;;;;12.57;2.83;;;10.60;86.30;;;;;;5034193;28;20220;-87
2022/06/14 00:22:17;;;;;;;16.83;4.30;;;10.60;86.40;;;;;;5035755;28;20216;-88
2022/06/14 00:24:42;;;;;;;13.63;2.70;;;10.60;86.50;;;;;;5035768;28;20181;-88
2022/06/14 00:27:08;;;;;;;16.73;3.70;;;10.50;86.60;;;;;;5035987;28;20211;-88
2022/06/14 00:29:33;;;;;;;19.13;3.90;;;10.60;86.60;;;;;;5034351;28;20196;-89
2022/06/14 00:31:59;;;;;;;13.43;4.13;;;10.60;86.60;;;;;;5036011;28;20176;-88
2022/06/14 00:34:24;;;;;;;14.23;3.40;;;10.60;86.40;;;;;;5035491;28;20245;-88
2022/06/14 00:37:04;;;;;;;13.17;3.70;;;10.60;86.40;;;;;;5034166;28;20715;-88
2022/06/14 00:39:29;;;;;;;12.93;2.70;;;10.60;86.50;;;;;;5034085;28;20192;-88
2022/06/14 00:41:56;;;;;;;18.10;4.27;;;10.60;86.60;;;;;;5035619;28;20303;-88
2022/06/14 00:44:24;;;;;;;16.87;3.47;;;10.60;86.60;;;;;;5035333;28;20181;-87
2022/06/14 00:46:59;;;;;;;11.73;3.23;;;10.60;86.60;;;;;;5033886;28;20299;-88
2022/06/14 00:50:05;;;;;;;16.30;3.63;;;10.60;86.80;;;;;;5034027;28;20203;-88
2022/06/14 00:52:38;;;;;;;11.53;3.00;;;10.60;86.80;;;;;;5035748;28;20167;-87
2022/06/14 00:55:24;;;;;;;13.93;2.90;;;10.70;86.80;;;;;;5035111;28;20149;-88
2022/06/14 00:57:54;;;;;;;20.23;4.00;;;10.70;86.60;;;;;;5033783;28;20169;-88
2022/06/14 01:00:27;;;;;;;13.00;3.80;;;10.70;86.80;;;;;;5035628;28;20195;-88
2022/06/14 01:02:55;;;;;;;6.47;2.43;;;10.70;86.70;;;;;;5033798;28;20183;-88
2022/06/14 01:08:29;;;;;;;22.47;4.10;;;10.80;86.60;;;;;;5035119;28;20732;-87
2022/06/14 01:10:55;;;;;;;16.20;3.67;;;10.80;86.60;;;;;;5033415;28;20192;-88
2022/06/14 01:13:22;;;;;;;12.57;3.73;;;10.80;86.80;;;;;;5033304;28;20234;-88
2022/06/14 01:15:53;;;;;;;18.67;3.33;;;10.80;86.80;;;;;;5033305;28;20222;-87
2022/06/14 01:18:18;;;;;;;19.50;4.97;;;10.80;86.70;;;;;;5034638;28;20173;-88
2022/06/14 01:20:44;;;;;;;14.40;3.73;;;10.80;86.70;;;;;;5033530;28;20720;-88
2022/06/14 01:23:14;;;;;;;14.17;3.50;;;10.90;86.70;;;;;;5034506;28;20197;-87
2022/06/14 01:25:46;;;;;;;14.27;3.70;;;10.90;86.80;;;;;;5033320;28;20188;-87
2022/06/14 01:28:14;;;;;;;9.87;3.73;;;10.90;86.80;;;;;;5034367;28;20192;-87
2022/06/14 01:30:45;;;;;;;22.93;3.50;;;11.00;86.60;;;;;;5033122;28;20200;-87
2022/06/14 01:33:23;;;;;;;11.40;3.47;;;11.00;86.30;;;;;;5034168;28;20181;-87
2022/06/14 01:35:54;;;;;;;18.60;3.67;;;11.00;86.00;;;;;;5033024;28;20246;-88
2022/06/14 01:38:20;;;;;;;15.63;3.30;;;11.00;85.90;;;;;;5032992;28;20176;-88
2022/06/14 01:40:47;;;;;;;14.07;3.03;;;11.10;85.60;;;;;;5032874;28;20200;-87
2022/06/14 01:43:34;;;;;;;9.33;2.53;;;11.10;85.50;;;;;;5033015;28;20650;-87
2022/06/14 01:46:02;;;;;;;14.80;2.73;;;11.10;85.50;;;;;;5034403;28;20160;-87
2022/06/14 01:48:33;;;;;;;19.07;4.37;;;11.00;85.50;;;;;;5032754;28;20694;-87
2022/06/14 01:54:20;;;;;;;14.47;3.67;;;11.10;85.40;;;;;;5034197;28;20240;-87
2022/06/14 01:57:04;;;;;;;13.77;3.13;;;11.10;85.20;;;;;;5033975;28;20168;-88
2022/06/14 01:59:51;;;;;;;11.73;3.27;;;11.10;85.00;;;;;;5033901;28;20577;-89
2022/06/14 02:02:25;;;;;;;14.97;3.33;;;11.10;84.90;;;;;;5032633;28;20169;-88
2022/06/14 02:05:02;;;;;;;11.43;2.80;;;11.10;85.10;;;;;;5033735;28;20164;-88
2022/06/14 02:07:52;;;;;;;16.07;3.63;;;11.00;85.10;;;;;;5032407;28;20196;-87
2022/06/14 02:10:25;;;;;;;17.50;3.80;;;11.00;85.00;;;;;;5032446;28;20717;-88
2022/06/14 02:13:06;;;;;;;16.17;3.07;;;11.00;85.00;;;;;;5032474;28;20639;-87
2022/06/14 02:16:07;;;;;;;17.40;3.60;;;11.00;85.00;;;;;;5033704;28;20258;-88
2022/06/14 02:18:47;;;;;;;13.50;2.93;;;11.00;85.00;;;;;;5007107;28;20195;-87
2022/06/14 02:21:22;;;;;;;17.83;4.63;;;11.00;85.00;;;;;;5033599;28;20172;-87
2022/06/14 02:23:56;;;;;;;10.33;3.00;;;11.00;85.00;;;;;;5032202;28;20160;-87
2022/06/14 02:26:43;;;;;;;8.13;2.70;;;11.00;85.30;;;;;;5032893;28;20168;-87
2022/06/14 02:29:41;;;;;;;16.43;3.13;;;10.90;85.30;;;;;;5033659;28;20291;-88
2022/06/14 02:32:17;;;;;;;15.50;3.60;;;10.90;85.40;;;;;;5020144;28;20181;-87
2022/06/14 02:35:08;;;;;;;9.73;3.53;;;10.90;85.20;;;;;;5033729;28;20183;-87
2022/06/14 02:37:41;;;;;;;21.77;4.43;;;10.80;85.70;;;;;;5032291;28;20200;-87
2022/06/14 02:40:11;;;;;;;16.67;4.00;;;10.90;85.60;;;;;;5032243;28;20196;-87
2022/06/14 02:42:44;;;;;;;11.43;3.40;;;10.90;85.40;;;;;;5032360;28;20210;-88
2022/06/14 02:45:22;;;;;;;14.80;3.60;;;10.90;85.60;;;;;;5032320;28;20172;-88
2022/06/14 02:48:06;;;;;;;15.40;3.77;;;10.80;85.80;;;;;;5032058;28;20283;-88
2022/06/14 02:50:56;;;;;;;18.53;3.53;;;10.90;85.90;;;;;;5033358;28;20185;-88
2022/06/14 02:53:24;;;;;;;11.77;3.50;;;10.90;85.60;;;;;;5033807;28;20170;-88
2022/06/14 02:56:08;;;;;;;13.53;3.63;;;10.90;85.20;;;;;;5032528;28;20184;-88
2022/06/14 02:58:57;;;;;;;9.80;3.27;;;10.90;85.50;;;;;;5033285;28;20161;-88
2022/06/14 03:01:22;;;;;;;12.77;3.07;;;10.90;85.60;;;;;;5033385;28;20539;-88
2022/06/14 03:04:11;;;;;;;14.67;4.00;;;10.90;85.70;;;;;;5033262;28;20191;-88
2022/06/14 03:06:50;;;;;;;13.90;3.23;;;10.90;85.90;;;;;;5031839;28;20644;-88
2022/06/14 03:09:20;;;;;;;12.30;3.50;;;10.90;86.00;;;;;;5033187;28;20192;-88
2022/06/14 03:11:48;;;;;;;19.30;3.67;;;10.90;86.10;;;;;;5031809;28;20191;-87
2022/06/14 03:14:19;;;;;;;11.33;3.30;;;10.90;86.20;;;;;;5031747;28;20271;-87
2022/06/14 03:17:15;;;;;;;13.53;3.37;;;10.90;86.40;;;;;;5032081;28;20180;-87
2022/06/14 03:20:04;;;;;;;11.73;3.80;;;11.00;86.30;;;;;;5031725;28;20247;-88
2022/06/14 03:22:48;;;;;;;12.67;4.00;;;11.00;86.50;;;;;;5033038;28;20220;-88
2022/06/14 03:25:39;;;;;;;7.93;3.23;;;11.00;86.40;;;;;;5031854;28;20172;-88
2022/06/14 03:28:17;;;;;;;15.43;3.87;;;11.10;86.50;;;;;;5031715;28;20203;-88
2022/06/14 03:31:01;;;;;;;19.63;4.00;;;11.10;86.40;;;;;;5035324;28;20203;-87
2022/06/14 03:33:39;;;;;;;9.27;3.33;;;11.10;86.40;;;;;;5035497;28;20535;-87
2022/06/14 03:36:07;;;;;;;11.60;3.50;;;11.10;86.60;;;;;;5035243;28;20165;-87
2022/06/14 03:38:39;;;;;;;9.73;3.60;;;11.10;86.50;;;;;;5036358;28;20183;-87
2022/06/14 03:41:07;;;;;;;20.13;4.63;;;11.20;86.70;;;;;;5036432;28;20203;-87
2022/06/14 03:43:34;;;;;;;16.83;4.87;;;11.10;87.00;;;;;;5036173;28;20616;-87
2022/06/14 03:46:11;;;;;;;19.83;4.53;;;11.20;87.10;;;;;;5035000;28;20176;-87
2022/06/14 03:48:40;;;;;;;11.87;3.70;;;11.20;87.30;;;;;;5035032;28;20200;-87
2022/06/14 03:51:11;;;;;;;12.20;4.40;;;11.20;87.60;;;;;;5034783;28;20207;-87
2022/06/14 03:53:48;;;;;;;18.30;4.30;;;11.20;87.70;;;;;;5034857;28;20184;-87
2022/06/14 03:56:33;;;;;;;14.23;3.93;;;11.30;87.80;;;;;;5034779;28;20287;-87
2022/06/14 03:59:27;;;;;;;16.27;4.53;;;11.30;87.80;;;;;;5035761;28;20283;-87
2022/06/14 04:02:04;;;;;;;14.57;4.13;;;11.30;88.00;;;;;;5035867;28;20243;-89
2022/06/14 04:04:52;;;;;;;20.37;5.03;;;11.30;87.90;;;;;;5035751;28;20210;-87
2022/06/14 04:07:21;;;;;;;10.70;4.10;;;11.30;87.90;;;;;;5035734;28;20188;-87
2022/06/14 04:10:30;;;;;;;16.47;4.43;;;11.40;87.90;;;;;;5034419;28;20204;-88
2022/06/14 04:13:17;;;;;;;7.83;3.60;;;11.30;87.90;;;;;;5034448;28;20263;-88
2022/06/14 04:15:51;;;;;;;16.27;3.93;;;11.30;87.90;;;;;;5034694;28;20256;-88
2022/06/14 04:18:52;;;;;;;14.13;4.33;;;11.40;87.70;;;;;;5035695;28;20183;-86
2022/06/14 04:21:39;;;;;;;16.70;4.17;;;11.40;87.60;;;;;;5030520;28;20192;-88
2022/06/14 04:24:31;;;;;;;11.73;3.93;;;11.40;87.80;;;;;;5035629;28;20168;-88
2022/06/14 04:27:10;;;;;;;15.87;4.57;;;11.50;87.70;;;;;;5034402;28;20203;-88
2022/06/14 04:30:06;;;;;;;14.57;4.67;;;11.60;87.70;;;;;;5035567;28;20188;-88
2022/06/14 04:32:39;;;;;;;12.60;4.73;;;11.70;87.90;;;;;;5034228;28;20165;-87
2022/06/14 04:35:17;;;;;;;13.70;3.67;;;11.70;87.70;;;;;;5035506;28;20161;-87
2022/06/14 04:37:52;;;;;;;20.63;4.33;;;11.70;87.50;;;;;;5034163;28;20528;-88
2022/06/14 04:40:17;;;;;;;15.90;3.93;;;11.80;87.30;;;;;;5032964;28;20682;-88
2022/06/14 04:42:46;;;;;;;15.27;4.63;;;11.80;87.10;;;;;;5034139;28;20179;-88
2022/06/14 04:45:20;;;;;;;10.33;3.53;;;11.80;87.20;;;;;;5034071;28;20623;-87
2022/06/14 04:47:53;;;;;;;12.53;3.80;;;11.80;86.90;;;;;;5035212;28;20195;-88
2022/06/14 04:50:38;;;;;;;21.80;4.43;;;11.80;86.40;;;;;;5033916;28;20204;-88
2022/06/14 04:53:12;;;;;;;13.07;3.70;;;11.80;86.50;;;;;;5035182;28;20247;-87
2022/06/14 04:55:40;;;;;;;13.93;3.73;;;11.80;86.60;;;;;;5033863;28;20577;-88
2022/06/14 04:58:10;;;;;;;12.53;3.90;;;11.80;86.60;;;;;;5033652;28;20185;-87
2022/06/14 05:00:57;;;;;;;11.23;3.80;;;11.80;86.50;;;;;;5033610;28;20205;-87
2022/06/14 05:03:44;;;;;;;14.97;4.70;;;11.80;86.70;;;;;;5033653;28;20238;-87
2022/06/14 05:06:27;;;;;;;17.40;4.60;;;11.80;86.60;;;;;;5033577;28;20181;-87
2022/06/14 05:09:01;;;;;;;19.43;4.67;;;11.80;86.60;;;;;;5034373;28;20243;-87
2022/06/14 05:11:30;;;;;;;13.10;3.80;;;11.80;86.70;;;;;;5033707;28;20172;-87
2022/06/14 05:14:04;;;;;;;14.40;4.90;;;11.80;86.60;;;;;;5033319;28;20238;-87
2022/06/14 05:16:41;;;;;;;15.87;4.20;;;11.90;86.70;;;;;;5033501;28;20199;-87
2022/06/14 05:19:13;;;;;;;12.07;4.10;;;11.90;86.50;;;;;;5033306;28;20212;-87
2022/06/14 05:22:01;;;;;;;13.77;3.93;;;11.90;86.50;;;;;;5033473;28;20172;-87
2022/06/14 05:24:28;;;;;;;12.10;4.07;;;11.80;86.40;;;;;;5033460;28;20181;-87
2022/06/14 05:27:08;;;;;;;16.27;4.57;;;11.90;86.50;;;;;;5034408;28;20231;-87
2022/06/14 05:29:43;;;;;;;14.77;4.20;;;12.00;86.30;;;;;;5033027;28;20211;-87
2022/06/14 05:32:15;;;;;;;19.20;4.70;;;12.00;86.30;;;;;;5033114;28;20180;-87
2022/06/14 05:35:01;;;;;;;18.80;4.60;;;12.10;86.30;;;;;;5032927;28;20208;-87
2022/06/14 05:37:38;;;;;;;14.90;4.23;;;12.10;86.20;;;;;;5033071;28;20177;-87
2022/06/14 05:40:53;;;;;;;15.70;4.77;;;12.20;86.20;;;;;;5033135;28;20207;-87
2022/06/14 05:43:31;;;;;;;14.50;4.27;;;12.20;85.90;;;;;;4989995;28;20195;-87
2022/06/14 05:46:05;;;;;;;13.87;4.87;;;12.30;86.60;;;;;;5032885;28;20223;-87
2022/06/14 05:48:36;;;;;;;13.73;3.93;;;12.30;86.60;;;;;;5032909;28;20200;-87
2022/06/14 05:51:05;;;;;;;16.83;4.63;;;12.30;86.20;;;;;;5032744;28;20247;-86
2022/06/14 05:53:40;;;;;;;15.00;4.77;;;12.40;86.80;;;;;;5032518;28;20179;-87
2022/06/14 05:56:38;;;;;;;11.83;3.80;;;12.40;86.50;;;;;;5032584;28;20211;-87
2022/06/14 05:59:21;;;;;;;14.27;4.37;;;12.50;86.50;;;;;;5000889;28;20185;-87
2022/06/14 06:02:02;;;;;;;15.57;3.90;;;12.50;86.30;;;;;;5032716;28;20586;-88
2022/06/14 06:04:40;;;;;;;14.53;3.53;;;12.60;86.60;;;;;;5032659;28;20169;-88
2022/06/14 06:07:11;;;;;;;18.83;4.87;;;12.60;85.50;;;;;;5032403;28;20208;-87
2022/06/14 06:09:47;;;;;;;14.20;4.30;;;12.70;86.20;;;;;;5032339;28;20263;-87
2022/06/14 06:12:29;;;;;;;16.07;4.17;;;12.80;86.20;;;;;;5032370;28;20172;-87
2022/06/14 06:15:04;;;;;;;13.93;4.20;;;12.80;86.20;;;;;;5032510;28;20168;-87
2022/06/14 06:17:46;;;;;;;13.73;4.27;;;12.90;85.10;;;;;;5033670;28;20161;-88
2022/06/14 06:20:36;;;;;;;13.77;4.53;;;13.10;85.60;;;;;;5033456;28;20629;-87
2022/06/14 06:23:11;;;;;;;16.70;4.17;;;13.20;84.80;;;;;;5033330;28;20191;-87
2022/06/14 06:25:41;;;;;;;13.67;3.87;;;13.20;84.50;;;;;;5032331;28;20259;-87
2022/06/14 06:28:16;;;;;;;17.30;4.30;;;13.20;84.40;;;;;;5033003;28;20211;-87
2022/06/14 06:30:49;;;;;;;11.63;4.77;;;13.30;84.60;;;;;;5032041;28;20634;-87
2022/06/14 06:33:16;;;;;;;14.60;3.83;;;13.30;84.20;;;;;;5032387;28;20255;-87
2022/06/14 06:35:55;;;;;;;9.20;3.53;;;13.50;84.30;;;;;;5032366;28;20191;-87
2022/06/14 06:38:49;;;;;;;14.77;4.40;;;13.50;83.20;;;;;;5032102;28;20231;-87
2022/06/14 06:44:07;;;;;;;14.17;5.07;;;13.80;82.00;;;;;;5033601;28;20544;-88
2022/06/14 06:46:37;;;;;;;10.93;4.57;;;14.00;83.20;;;;;;5032163;28;20212;-87
2022/06/14 06:49:09;;;;;;;13.57;3.47;;;14.20;83.00;;;;;;5032172;28;20553;-88
2022/06/14 06:51:42;;;;;;;12.20;3.03;;;14.10;81.80;;;;;;5033317;28;20569;-88
2022/06/14 06:54:18;;;;;;;23.20;9.27;;;14.20;81.90;;;;;;5031941;28;20199;-87
2022/06/14 06:56:47;;;;;;;14.90;4.20;;;14.20;81.40;;;;;;5032018;28;20169;-87
2022/06/14 06:59:24;;;;;;;13.50;3.17;;;14.30;80.30;;;;;;5032999;28;20192;-87
2022/06/14 07:01:53;;;;;;;11.47;3.50;;;14.20;78.70;;;;;;5033362;28;20221;-86
2022/06/14 07:05:02;;;;;;;9.47;2.70;;;14.30;78.00;;;;;;5033576;28;20176;-86
2022/06/14 07:07:33;;;;;;;12.70;2.97;;;14.50;79.10;;;;;;5036757;28;20227;-88
2022/06/14 07:10:06;;;;;;;19.23;4.17;;;14.60;79.00;;;;;;5036603;28;20204;-87
2022/06/14 07:12:42;;;;;;;18.70;3.63;;;14.60;77.30;;;;;;5036919;28;20157;-86
2022/06/14 07:15:27;;;;;;;18.63;3.70;;;14.60;75.80;;;;;;5036527;28;20167;-88
2022/06/14 07:18:20;;;;;;;11.53;3.10;;;14.90;76.70;;;;;;5036088;28;20263;-87
2022/06/14 07:20:49;;;;;;;13.93;3.47;;;15.20;76.60;;;;;;5026465;28;20226;-88
2022/06/14 07:23:21;;;;;;;21.40;4.53;;;15.20;75.40;;;;;;5036525;28;20187;-87
2022/06/14 07:26:04;;;;;;;14.00;3.00;;;15.30;75.80;;;;;;5037212;28;20654;-87
2022/06/14 07:28:59;;;;;;;12.70;3.10;;;15.20;75.10;;;;;;5036913;28;20216;-88
2022/06/14 07:31:36;;;;;;;15.17;3.47;;;15.30;75.30;;;;;;5035912;28;20623;-87
2022/06/14 07:34:02;;;;;;;15.98;2.60;;;15.40;74.40;;;;;;5035984;28;20175;-86
2022/06/14 07:36:47;;;;;;;15.77;3.42;;;15.70;73.90;;;;;;5036255;28;20173;-87
2022/06/14 07:39:22;;;;;;;9.55;2.58;;;15.80;74.70;;;;;;5036053;28;20199;-87
2022/06/14 07:42:19;;;;;;;12.70;2.67;;;15.50;73.20;;;;;;5035781;28;20574;-87
2022/06/14 07:45:20;;;;;;;9.83;2.70;;;15.40;73.30;;;;;;5035503;28;20172;-87
2022/06/14 07:48:02;;;;;;;11.77;2.50;;;15.30;74.90;;;;;;5035373;28;20213;-88
2022/06/14 07:50:45;;;;;;;13.02;3.13;;;15.30;74.70;;;;;;5035520;28;20629;-88
2022/06/14 07:53:16;;;;;;;8.93;2.40;;;15.40;74.40;;;;;;5037241;28;20619;-88
2022/06/14 07:55:47;;;;;;;8.77;2.50;;;15.50;73.20;;;;;;5036333;28;20169;-87
2022/06/14 07:58:20;;;;;;;12.23;2.80;;;15.40;70.10;;;;;;5036547;28;20179;-87
2022/06/14 08:03:42;;;;;;;14.80;3.37;;;15.00;70.90;;;;;;5039060;28;20172;-87
2022/06/14 08:06:31;;;;;;;8.20;2.30;;;15.20;69.90;;;;;;5035466;28;20225;-86
2022/06/14 08:09:05;;;;;;;15.73;3.37;;;15.40;68.80;;;;;;5036193;28;20243;-86
2022/06/14 08:12:00;;;;;;;12.13;3.05;;;15.70;69.70;;;;;;5034924;28;20553;-86
2022/06/14 08:14:35;;;;;;;12.40;2.53;;;16.00;68.90;;;;;;5034444;28;20723;-87
2022/06/14 08:17:03;;;;;;;9.93;2.35;;;16.20;68.10;;;;;;5035340;28;20169;-86
2022/06/14 08:19:34;;;;;;;17.30;2.75;;;16.30;68.20;;;;;;5034824;28;20212;-86
2022/06/14 08:22:16;;;;;;;12.73;2.75;;;16.20;67.70;;;;;;5034531;28;20215;-87
2022/06/14 08:24:52;;;;;;;14.57;2.50;;;16.40;67.50;;;;;;5035879;28;20256;-86
2022/06/14 08:27:23;;;;;;;8.57;3.17;;;16.50;65.90;;;;;;5034372;28;20200;-86
2022/06/14 08:29:58;;;;;;;12.70;2.70;;;16.60;65.30;;;;;;5034477;28;20291;-85
2022/06/14 08:32:41;;;;;;;10.05;2.42;;;16.40;65.00;;;;;;5035509;28;20156;-86
2022/06/14 08:35:21;;;;;;;10.45;2.83;;;16.50;65.00;;;;;;5035592;28;20164;-87
2022/06/14 08:37:59;;;;;;;9.95;2.67;;;16.60;62.60;;;;;;5034311;28;20631;-86
2022/06/14 08:40:28;;;;;;;9.65;3.05;;;16.70;64.20;;;;;;5035131;28;20270;-87
2022/06/14 08:42:58;;;;;;;12.65;2.60;;;17.00;65.10;;;;;;5034130;28;20181;-86
2022/06/14 08:45:38;;;;;;;10.05;2.22;;;17.30;63.50;;;;;;5033988;28;20274;-87
2022/06/14 08:48:09;;;;;;;10.20;2.92;;;17.70;62.10;;;;;;5034585;28;20196;-86
2022/06/14 08:51:10;;;;;;;6.68;1.92;;;17.60;61.00;;;;;;5035132;28;20242;-87
2022/06/14 08:53:57;;;;;;;9.57;2.05;;;17.80;60.50;;;;;;5033951;28;20181;-87
2022/06/14 08:56:44;;;;;;;6.60;1.88;;;17.60;58.30;;;;;;5035265;28;20169;-86
2022/06/14 08:59:31;;;;;;;10.63;2.20;;;17.30;58.90;;;;;;5034170;28;20197;-87
2022/06/14 09:02:25;;;;;;;8.48;2.38;;;17.40;59.60;;;;;;5033637;28;20234;-86
2022/06/14 09:05:24;;;;;;;11.13;2.22;;;17.50;60.10;;;;;;5034839;28;20192;-86
2022/06/14 09:08:17;;;;;;;11.02;2.05;;;17.60;61.10;;;;;;5034982;28;20188;-86
2022/06/14 09:11:05;;;;;;;11.93;2.20;;;18.30;58.10;;;;;;5033679;28;20203;-87
2022/06/14 09:14:16;;;;;;;13.38;2.42;;;18.60;58.80;;;;;;4995529;28;20184;-86
2022/06/14 09:17:00;;;;;;;7.00;1.83;;;18.00;59.70;;;;;;5034464;28;20177;-85
2022/06/14 09:20:03;;;;;;;5.97;1.80;;;17.80;61.20;;;;;;5034873;28;20208;-86
2022/06/14 09:23:02;;;;;;;10.38;2.35;;;17.60;59.50;;;;;;5035014;28;20654;-88
2022/06/14 09:25:59;;;;;;;8.05;2.08;;;18.00;61.70;;;;;;5034928;28;20698;-86
2022/06/14 09:28:39;;;;;;;7.93;2.00;;;18.70;59.60;;;;;;4998649;28;20209;-88
2022/06/14 09:31:23;;;;;;;5.13;1.77;;;19.00;59.80;;;;;;5032925;28;20607;-87
2022/06/14 09:34:26;;;;;;;6.50;1.85;;;19.30;56.90;;;;;;5034293;28;20156;-87
2022/06/14 09:37:24;;;;;;;6.15;1.77;;;19.50;57.50;;;;;;5033101;28;20161;-87
2022/06/14 09:40:05;;;;;;;8.38;1.80;;;18.30;58.40;;;;;;5033459;28;20219;-87
2022/06/14 09:42:52;;;;;;;9.27;2.30;;;18.30;58.70;;;;;;5034254;28;20168;-87
2022/06/14 09:45:55;;;;;;;10.38;2.10;;;18.80;57.30;;;;;;5033462;28;20515;-87
2022/06/14 09:48:39;;;;;;;8.57;2.25;;;18.60;57.80;;;;;;5032755;28;20203;-87
2022/06/14 09:51:23;;;;;;;8.27;2.03;;;18.90;57.20;;;;;;5032804;28;20287;-88
2022/06/14 09:54:16;;;;;;;7.63;1.67;;;18.80;59.60;;;;;;5032724;28;20519;-88
2022/06/14 09:57:00;;;;;;;12.48;2.65;;;18.50;59.80;;;;;;5032642;28;20196;-89
2022/06/14 09:59:52;;;;;;;6.65;2.03;;;17.80;60.70;;;;;;5032749;28;20745;-87
2022/06/14 10:02:27;;;;;;;10.88;2.20;;;17.90;59.60;;;;;;5032682;28;20222;-87
2022/06/14 10:05:18;;;;;;;10.43;2.28;;;18.20;61.80;;;;;;5032596;28;20180;-87
2022/06/14 10:07:57;;;;;;;8.77;2.10;;;17.80;57.90;;;;;;5033047;28;20201;-87
2022/06/14 10:10:41;;;;;;;8.52;2.17;;;18.10;60.00;;;;;;5033385;28;20196;-87
2022/06/14 10:13:36;;;;;;;12.70;1.90;;;18.30;59.10;;;;;;5033943;28;20157;-87
2022/06/14 10:16:46;;;;;;;7.57;1.80;;;18.70;58.30;;;;;;5034499;28;20153;-87
2022/06/14 10:19:49;;;;;;;5.25;1.80;;;19.00;59.40;;;;;;4997484;28;20216;-87
2022/06/14 10:22:35;;;;;;;4.28;1.90;;;19.20;56.60;;;;;;5034079;28;20259;-85
2022/06/14 10:28:59;;;;;;;6.68;2.72;;;18.50;58.30;;;;;;5023402;28;20212;-86
2022/06/14 10:31:39;;;;;;;7.55;1.98;;;17.80;59.60;;;;;;5032471;28;20168;-86
2022/06/14 10:34:30;;;;;;;6.25;1.60;;;17.40;62.30;;;;;;5032688;28;20179;-86
2022/06/14 10:37:08;;;;;;;10.13;2.83;;;17.70;61.60;;;;;;5032564;28;20185;-86
2022/06/14 10:39:58;;;;;;;10.25;2.10;;;17.70;62.30;;;;;;5035027;28;20330;-86
2022/06/14 10:42:43;;;;;;;9.77;2.28;;;17.70;61.60;;;;;;5036624;28;20165;-86
2022/06/14 10:45:23;;;;;;;8.02;2.10;;;18.20;61.60;;;;;;5037807;28;20171;-86
2022/06/14 10:48:38;;;;;;;4.82;2.20;;;18.40;61.60;;;;;;5036329;28;20200;-87
2022/06/14 10:51:24;;;;;;;6.32;1.95;;;18.80;58.80;;;;;;5036514;28;20296;-86
2022/06/14 10:54:07;;;;;;;6.70;1.98;;;18.30;61.30;;;;;;5037846;28;20674;-87
2022/06/14 10:57:19;;;;;;;10.13;3.13;;;18.10;63.60;;;;;;5038705;28;20176;-87
2022/06/14 11:00:04;;;;;;;9.55;2.17;;;18.40;61.90;;;;;;5010961;28;20227;-87
2022/06/14 11:03:14;;;;;;;6.95;1.80;;;18.80;62.70;;;;;;5037858;28;20164;-87
2022/06/14 11:05:39;;;;;;;5.72;1.98;;;19.30;59.70;;;;;;5037769;28;20168;-87
2022/06/14 11:08:31;;;;;;;9.20;2.35;;;19.20;58.50;;;;;;5038153;28;20193;-86
2022/06/14 11:11:14;;;;;;;5.70;1.50;;;18.00;61.30;;;;;;5039024;28;20326;-87
2022/06/14 11:14:04;;;;;;;6.15;1.60;;;17.90;59.80;;;;;;5039598;28;20164;-87
2022/06/14 11:16:45;;;;;;;8.77;1.80;;;17.60;60.40;;;;;;5038036;28;20153;-87
2022/06/14 11:19:38;;;;;;;9.23;2.13;;;18.30;61.70;;;;;;5038011;28;20192;-86
2022/06/14 11:22:17;;;;;;;6.50;1.90;;;18.20;60.80;;;;;;5037373;28;20203;-86
2022/06/14 11:24:47;;;;;;;6.00;1.77;;;18.30;61.40;;;;;;5037305;28;20212;-86
2022/06/14 11:27:32;;;;;;;6.63;2.00;;;17.80;62.20;;;;;;5035359;28;20205;-86
2022/06/14 11:30:29;;;;;;;5.40;1.92;;;18.00;64.30;;;;;;5035393;28;20693;-86
2022/06/14 11:33:26;;;;;;;5.60;1.40;;;18.70;62.70;;;;;;5035779;28;20179;-87
2022/06/14 11:36:35;;;;;;;5.63;2.03;;;19.10;62.10;;;;;;5029650;28;20258;-87
2022/06/14 11:39:21;;;;;;;7.40;1.88;;;19.40;62.20;;;;;;5008877;28;20643;-88
2022/06/14 11:41:50;;;;;;;7.63;1.95;;;19.80;59.30;;;;;;5037624;28;20164;-88
2022/06/14 11:44:37;;;;;;;5.93;1.60;;;20.00;57.70;;;;;;5035105;28;20176;-90
2022/06/14 11:47:28;;;;;;;6.93;1.95;;;20.30;57.20;;;;;;5035262;28;20714;-90
2022/06/14 11:50:06;;;;;;;6.57;1.60;;;20.00;58.60;;;;;;5034845;28;20287;-86
2022/06/14 11:52:50;;;;;;;6.63;1.85;;;20.10;57.00;;;;;;5037030;28;20160;-86
2022/06/14 11:55:40;;;;;;;8.25;1.73;;;19.50;58.90;;;;;;5035180;28;20216;-87
2022/06/14 11:58:34;;;;;;;6.80;1.52;;;20.00;57.60;;;;;;5035370;28;20200;-87
2022/06/14 12:01:22;;;;;;;7.90;1.98;;;19.70;56.20;;;;;;5034850;28;20267;-89
2022/06/14 12:04:14;;;;;;;4.90;1.60;;;19.40;58.60;;;;;;5035712;28;20183;-88
2022/06/14 12:07:22;;;;;;;6.47;2.15;;;19.70;60.70;;;;;;5035518;28;20179;-88
2022/06/14 12:10:32;;;;;;;4.28;1.48;;;20.60;57.60;;;;;;5021266;28;20219;-88
2022/06/14 12:13:13;;;;;;;3.53;1.33;;;21.20;54.40;;;;;;5020320;28;20188;-87
2022/06/14 12:15:46;;;;;;;4.75;1.67;;;20.40;54.40;;;;;;5034952;28;20173;-88
2022/06/14 12:18:15;;;;;;;3.83;1.38;;;20.50;58.00;;;;;;5034688;28;20173;-86
2022/06/14 12:21:06;;;;;;;3.30;1.63;;;20.60;54.40;;;;;;5036395;28;20226;-86
2022/06/14 12:23:46;;;;;;;6.80;1.75;;;20.70;54.90;;;;;;4997506;28;20726;-87
2022/06/14 12:26:35;;;;;;;6.65;1.80;;;20.70;55.90;;;;;;5034556;28;20185;-88
2022/06/14 12:29:00;;;;;;;7.47;2.15;;;20.70;56.70;;;;;;5035882;28;20547;-87
2022/06/14 12:31:55;;;;;;;6.35;1.70;;;20.80;56.60;;;;;;5034331;28;20352;-87
2022/06/14 12:34:32;;;;;;;6.28;1.75;;;20.90;55.20;;;;;;5034322;28;20263;-87
2022/06/14 12:37:28;;;;;;;6.05;2.10;;;21.00;55.40;;;;;;5035877;28;20631;-88
2022/06/14 12:40:03;;;;;;;8.88;1.90;;;19.80;56.90;;;;;;5034470;28;20291;-87
2022/06/14 12:42:57;;;;;;;5.97;1.85;;;19.70;58.80;;;;;;5035437;28;20152;-88
2022/06/14 12:45:50;;;;;;;5.40;1.90;;;19.90;58.50;;;;;;5035553;28;20179;-87
2022/06/14 12:48:45;;;;;;;7.15;2.00;;;20.20;58.80;;;;;;5034535;28;20197;-87
2022/06/14 12:51:16;;;;;;;9.55;2.00;;;20.00;57.40;;;;;;5035264;28;20219;-87
2022/06/14 12:54:20;;;;;;;5.03;1.58;;;19.80;59.70;;;;;;5033896;28;20738;-86
2022/06/14 12:56:57;;;;;;;4.63;1.70;;;20.10;58.50;;;;;;4965425;28;20190;-87
2022/06/14 12:59:50;;;;;;;6.65;1.73;;;19.90;58.70;;;;;;5035077;28;20188;-87
2022/06/14 13:02:25;;;;;;;7.07;1.65;;;19.80;59.20;;;;;;5032822;28;20164;-87
2022/06/14 13:05:00;;;;;;;9.23;2.00;;;20.20;60.50;;;;;;5033820;28;20222;-88
2022/06/14 13:07:50;;;;;;;5.82;1.58;;;20.10;58.90;;;;;;5033613;28;20196;-88
2022/06/14 13:10:43;;;;;;;5.63;1.52;;;20.00;57.60;;;;;;5035228;28;20192;-86
2022/06/14 13:13:40;;;;;;;3.78;1.77;;;19.80;60.40;;;;;;5033746;28;20183;-90
2022/06/14 13:16:37;;;;;;;5.82;1.50;;;19.50;61.30;;;;;;5035268;28;20616;-87
2022/06/14 13:19:28;;;;;;;5.38;1.88;;;19.70;59.60;;;;;;5033276;28;20298;-88
2022/06/14 13:22:23;;;;;;;8.07;2.10;;;20.10;59.30;;;;;;5031582;28;20685;-88
2022/06/14 13:25:21;;;;;;;6.35;2.03;;;20.10;59.60;;;;;;5033427;28;20185;-89
2022/06/14 13:28:16;;;;;;;3.55;1.63;;;20.60;59.60;;;;;;5034451;28;20196;-89
2022/06/14 13:31:04;;;;;;;7.70;1.58;;;21.10;57.80;;;;;;5033293;28;20197;-88
2022/06/14 13:33:50;;;;;;;6.13;2.05;;;21.50;55.20;;;;;;5033043;28;20176;-88
2022/06/14 13:36:58;;;;;;;6.45;1.70;;;20.90;56.50;;;;;;5034296;28;20311;-88
2022/06/14 13:39:29;;;;;;;8.63;1.98;;;21.50;55.60;;;;;;5034082;28;20224;-88
2022/06/14 13:42:01;;;;;;;10.63;1.80;;;21.40;55.10;;;;;;5032987;28;20168;-88
2022/06/14 13:44:45;;;;;;;5.72;1.65;;;20.90;57.30;;;;;;5034139;28;20161;-88
2022/06/14 13:47:19;;;;;;;5.47;1.60;;;20.80;56.90;;;;;;5032993;28;20634;-88
2022/06/14 13:49:58;;;;;;;4.55;1.50;;;21.20;57.40;;;;;;5033939;28;20192;-92
2022/06/14 13:52:32;;;;;;;5.35;1.73;;;21.70;54.40;;;;;;5034582;28;20177;-90
2022/06/14 13:55:13;;;;;;;6.60;1.90;;;21.60;56.70;;;;;;5033891;28;20603;-89
2022/06/14 13:57:53;;;;;;;5.32;2.05;;;21.80;55.10;;;;;;5032821;28;20230;-90
2022/06/14 14:00:38;;;;;;;4.85;1.48;;;22.10;54.30;;;;;;5032563;28;20275;-89
2022/06/14 14:03:36;;;;;;;4.40;1.45;;;21.20;53.90;;;;;;5034116;28;20187;-89
2022/06/14 14:06:15;;;;;;;6.90;1.75;;;21.10;54.40;;;;;;5032699;28;20161;-89
2022/06/14 14:08:54;;;;;;;3.90;1.52;;;21.00;55.90;;;;;;5032764;28;20193;-89